createdAt,value
2023-05-17T00:01:51.305Z,9.24
2023-05-17T00:04:19.369Z,9.35
2023-05-17T00:06:47.303Z,9.30
2023-05-17T00:09:15.272Z,9.50
2023-05-17T00:11:43.205Z,9.41
2023-05-17T00:14:11.711Z,9.46
2023-05-17T00:16:39.851Z,9.24
2023-05-17T00:19:09.752Z,9.05
2023-05-17T00:21:38.123Z,9.03
2023-05-17T00:24:06.851Z,9.01
2023-05-17T00:26:34.849Z,9.15
2023-05-17T00:29:03.595Z,9.03
2023-05-17T00:31:31.520Z,9.04
2023-05-17T00:33:59.449Z,9.00
2023-05-17T00:36:28.803Z,9.11
2023-05-17T00:38:56.721Z,8.98
2023-05-17T00:41:24.869Z,8.91
2023-05-17T00:43:53.043Z,8.99
2023-05-17T00:46:20.989Z,8.84
2023-05-17T00:48:48.980Z,8.72
2023-05-17T00:51:17.860Z,8.98
2023-05-17T00:53:47.336Z,8.67
2023-05-17T00:56:15.315Z,8.84
2023-05-17T00:58:43.485Z,8.85
2023-05-17T01:01:11.435Z,8.96
2023-05-17T01:03:39.683Z,8.84
2023-05-17T01:06:07.962Z,8.76
2023-05-17T01:08:36.103Z,8.76
2023-05-17T01:11:11.734Z,8.89
2023-05-17T01:13:43.787Z,8.92
2023-05-17T01:16:17.619Z,8.98
2023-05-17T01:18:49.648Z,8.87
2023-05-17T01:21:32.161Z,8.92
2023-05-17T01:24:07.811Z,9.00
2023-05-17T01:26:40.630Z,9.00
2023-05-17T01:29:09.945Z,9.08
2023-05-17T01:31:38.601Z,9.07
2023-05-17T01:34:08.644Z,8.84
2023-05-17T01:36:37.348Z,9.13
2023-05-17T01:39:05.313Z,9.06
2023-05-17T01:41:40.029Z,9.00
2023-05-17T01:44:14.423Z,8.88
2023-05-17T01:46:43.564Z,8.76
2023-05-17T01:49:19.511Z,8.72
2023-05-17T01:51:50.375Z,8.88
2023-05-17T01:54:23.122Z,8.65
2023-05-17T01:56:57.691Z,8.50
2023-05-17T01:59:26.840Z,8.67
2023-05-17T02:01:56.619Z,8.78
2023-05-17T02:04:24.735Z,8.69
2023-05-17T02:06:52.705Z,8.67
2023-05-17T02:09:20.799Z,8.48
2023-05-17T02:11:48.717Z,8.52
2023-05-17T02:14:18.036Z,8.66
2023-05-17T02:16:46.008Z,8.88
2023-05-17T02:19:15.204Z,8.61
2023-05-17T02:21:43.168Z,8.41
2023-05-17T02:24:11.140Z,8.49
2023-05-17T02:26:42.826Z,8.62
2023-05-17T02:29:11.168Z,8.67
2023-05-17T02:31:40.492Z,8.59
2023-05-17T02:34:08.550Z,8.49
2023-05-17T02:36:36.468Z,8.60
2023-05-17T02:39:04.490Z,8.50
2023-05-17T02:41:32.429Z,8.35
2023-05-17T02:44:00.540Z,8.51
2023-05-17T02:46:28.515Z,8.50
2023-05-17T02:48:57.807Z,8.32
2023-05-17T02:51:25.738Z,8.52
2023-05-17T02:53:53.681Z,8.43
2023-05-17T02:56:21.753Z,8.32
2023-05-17T02:58:49.677Z,8.51
2023-05-17T03:01:17.644Z,8.52
2023-05-17T03:03:45.750Z,8.48
2023-05-17T03:06:16.970Z,8.41
2023-05-17T03:08:44.894Z,8.21
2023-05-17T03:11:12.832Z,8.24
2023-05-17T03:13:40.756Z,8.18
2023-05-17T03:16:09.653Z,8.19
2023-05-17T03:18:37.767Z,8.13
2023-05-17T03:21:05.844Z,8.21
2023-05-17T03:23:35.177Z,8.05
2023-05-17T03:26:03.208Z,7.96
2023-05-17T03:28:31.115Z,8.00
2023-05-17T03:30:59.132Z,8.11
2023-05-17T03:33:27.191Z,8.35
2023-05-17T03:35:55.155Z,8.34
2023-05-17T03:38:23.303Z,8.49
2023-05-17T03:40:54.377Z,8.47
2023-05-17T03:43:22.302Z,8.36
2023-05-17T03:45:50.212Z,8.29
2023-05-17T03:48:18.231Z,8.40
2023-05-17T03:50:46.269Z,8.74
2023-05-17T03:53:14.202Z,8.62
2023-05-17T03:55:42.173Z,8.50
2023-05-17T03:58:11.507Z,8.48
2023-05-17T04:00:39.463Z,8.66
2023-05-17T04:03:07.834Z,8.53
2023-05-17T04:05:35.943Z,8.77
2023-05-17T04:08:03.917Z,8.87
2023-05-17T04:10:32.010Z,8.82
2023-05-17T04:12:59.914Z,8.76
2023-05-17T04:15:29.397Z,8.71
2023-05-17T04:17:57.575Z,8.96
2023-05-17T04:20:25.578Z,8.96
2023-05-17T04:22:53.546Z,8.92
2023-05-17T04:25:22.587Z,9.12
2023-05-17T04:27:50.564Z,8.96
2023-05-17T04:30:18.729Z,8.89
2023-05-17T04:32:48.200Z,9.00
2023-05-17T04:35:16.264Z,8.66
2023-05-17T04:37:44.593Z,8.66
2023-05-17T04:40:14.643Z,8.76
2023-05-17T04:42:42.556Z,8.73
2023-05-17T04:45:15.398Z,8.70
2023-05-17T04:47:43.825Z,8.87
2023-05-17T04:50:13.621Z,8.88
2023-05-17T04:52:41.564Z,8.87
2023-05-17T04:55:10.423Z,8.85
2023-05-17T04:57:38.398Z,9.21
2023-05-17T05:00:09.986Z,9.22
2023-05-17T05:02:38.108Z,9.17
2023-05-17T05:05:07.142Z,8.99
2023-05-17T05:07:36.575Z,9.02
2023-05-17T05:10:04.870Z,9.28
2023-05-17T05:12:32.796Z,9.32
2023-05-17T05:15:01.279Z,9.13
2023-05-17T05:17:30.337Z,9.12
2023-05-17T05:19:58.367Z,9.28
2023-05-17T05:22:26.425Z,9.36
2023-05-17T05:24:56.460Z,9.58
2023-05-17T05:27:24.391Z,9.48
2023-05-17T05:29:52.471Z,9.43
2023-05-17T05:32:20.401Z,9.47
2023-05-17T05:34:48.401Z,9.13
2023-05-17T05:37:18.595Z,9.36
2023-05-17T05:39:46.791Z,9.45
2023-05-17T05:42:16.154Z,9.03
2023-05-17T05:44:44.108Z,9.15
2023-05-17T05:47:12.051Z,8.95
2023-05-17T05:49:40.048Z,9.10
2023-05-17T05:52:08.287Z,9.27
2023-05-17T05:54:36.230Z,9.26
2023-05-17T05:57:04.427Z,9.27
2023-05-17T05:59:33.733Z,9.66
2023-05-17T06:02:01.675Z,9.47
2023-05-17T06:04:43.669Z,9.36
2023-05-17T06:07:13.653Z,9.51
2023-05-17T06:09:41.616Z,9.51
2023-05-17T06:12:09.656Z,9.39
2023-05-17T06:14:39.020Z,9.19
2023-05-17T06:17:07.069Z,8.79
2023-05-17T06:19:35.231Z,9.08
2023-05-17T06:22:03.299Z,9.08
2023-05-17T06:24:31.222Z,9.14
2023-05-17T06:26:59.300Z,9.24
2023-05-17T06:29:27.228Z,9.59
2023-05-17T06:31:58.139Z,9.45
2023-05-17T06:34:26.057Z,9.67
2023-05-17T06:36:54.008Z,9.82
2023-05-17T06:39:21.924Z,9.96
2023-05-17T06:41:49.828Z,9.76
2023-05-17T06:44:17.769Z,10.06
2023-05-17T06:46:45.773Z,10.03
2023-05-17T06:49:15.132Z,9.97
2023-05-17T06:51:43.100Z,9.93
2023-05-17T06:54:11.244Z,9.96
2023-05-17T06:56:40.184Z,9.93
2023-05-17T06:59:08.141Z,9.97
2023-05-17T07:01:36.113Z,10.16
2023-05-17T07:04:04.269Z,10.08
2023-05-17T07:06:33.655Z,10.04
2023-05-17T07:09:01.774Z,9.95
2023-05-17T07:11:29.737Z,9.78
2023-05-17T07:13:57.748Z,9.97
2023-05-17T07:16:25.679Z,9.95
2023-05-17T07:18:54.109Z,9.88
2023-05-17T07:21:23.782Z,9.90
2023-05-17T07:23:53.145Z,10.04
2023-05-17T07:26:21.677Z,9.77
2023-05-17T07:28:49.977Z,10.08
2023-05-17T07:31:17.945Z,10.44
2023-05-17T07:33:46.192Z,10.49
2023-05-17T07:36:14.298Z,10.30
2023-05-17T07:38:42.375Z,10.12
2023-05-17T07:41:13.937Z,9.99
2023-05-17T07:43:41.851Z,10.12
2023-05-17T07:46:09.796Z,10.18
2023-05-17T07:48:37.851Z,10.28
2023-05-17T07:51:06.102Z,10.25
2023-05-17T07:53:34.123Z,10.26
2023-05-17T07:56:02.072Z,10.09
2023-05-17T07:58:31.414Z,10.14
2023-05-17T08:01:00.744Z,10.32
2023-05-17T08:03:29.586Z,10.39
2023-05-17T08:05:57.586Z,10.20
2023-05-17T08:08:25.645Z,10.40
2023-05-17T08:10:53.595Z,9.94
2023-05-17T08:13:21.515Z,10.03
2023-05-17T08:15:55.972Z,9.96
2023-05-17T08:18:29.691Z,10.29
2023-05-17T08:20:57.745Z,10.73
2023-05-17T08:23:25.944Z,10.60
2023-05-17T08:25:53.889Z,10.11
2023-05-17T08:28:22.280Z,9.71
2023-05-17T08:30:51.610Z,10.28
2023-05-17T08:33:20.854Z,10.88
2023-05-17T08:35:49.091Z,11.35
2023-05-17T08:38:19.222Z,10.89
2023-05-17T08:40:54.409Z,10.50
2023-05-17T08:43:26.833Z,10.23
2023-05-17T08:45:58.212Z,10.38
2023-05-17T08:48:27.705Z,10.13
2023-05-17T08:50:55.913Z,10.44
2023-05-17T08:53:24.171Z,10.40
2023-05-17T08:55:52.688Z,10.42
2023-05-17T08:58:22.678Z,10.46
2023-05-17T09:00:51.974Z,10.58
2023-05-17T09:03:22.581Z,10.91
2023-05-17T09:05:52.745Z,11.23
2023-05-17T09:08:21.378Z,10.89
2023-05-17T09:10:49.470Z,11.03
2023-05-17T09:13:17.603Z,10.71
2023-05-17T09:15:46.365Z,10.93
2023-05-17T09:18:16.375Z,10.48
2023-05-17T09:20:51.613Z,10.38
2023-05-17T09:23:22.427Z,11.03
2023-05-17T09:25:51.004Z,11.89
2023-05-17T09:28:20.776Z,11.54
2023-05-17T09:30:50.122Z,11.69
2023-05-17T09:33:22.098Z,11.57
2023-05-17T09:35:51.552Z,11.95
2023-05-17T09:38:19.565Z,12.36
2023-05-17T09:40:50.292Z,11.98
2023-05-17T09:43:18.560Z,11.53
2023-05-17T09:45:46.768Z,11.87
2023-05-17T09:48:15.709Z,11.73
2023-05-17T09:50:47.428Z,11.77
2023-05-17T09:53:30.273Z,11.35
2023-05-17T09:55:59.858Z,11.47
2023-05-17T09:58:28.963Z,10.99
2023-05-17T10:01:00.452Z,11.34
2023-05-17T10:03:32.120Z,11.63
2023-05-17T10:06:02.454Z,11.89
2023-05-17T10:08:33.493Z,12.45
2023-05-17T10:11:05.262Z,11.85
2023-05-17T10:13:42.427Z,11.84
2023-05-17T10:16:10.940Z,12.24
2023-05-17T10:18:41.735Z,12.64
2023-05-17T10:21:10.808Z,12.28
2023-05-17T10:23:40.439Z,11.06
2023-05-17T10:26:08.494Z,11.38
2023-05-17T10:28:37.938Z,12.22
2023-05-17T10:31:06.503Z,12.19
2023-05-17T10:33:34.526Z,12.47
2023-05-17T10:36:04.068Z,12.74
2023-05-17T10:38:41.889Z,12.98
2023-05-17T10:41:13.015Z,13.71
2023-05-17T10:43:42.268Z,13.25
2023-05-17T10:46:15.787Z,13.07
2023-05-17T10:48:55.927Z,12.80
2023-05-17T10:51:26.046Z,12.98
2023-05-17T10:54:11.657Z,13.66
2023-05-17T10:56:48.526Z,13.46
2023-05-17T10:59:17.932Z,13.17
2023-05-17T11:02:02.975Z,12.28
2023-05-17T11:04:34.575Z,12.44
2023-05-17T11:07:24.775Z,12.05
2023-05-17T11:09:56.170Z,11.70
2023-05-17T11:12:38.535Z,12.30
2023-05-17T11:15:09.437Z,12.52
2023-05-17T11:17:49.818Z,12.73
2023-05-17T11:20:37.168Z,13.49
2023-05-17T11:23:06.953Z,13.84
2023-05-17T11:25:36.264Z,12.66
2023-05-17T11:28:09.981Z,13.50
2023-05-17T11:30:43.533Z,12.79
2023-05-17T11:33:24.958Z,13.37
2023-05-17T11:36:05.494Z,13.35
2023-05-17T11:38:34.450Z,12.67
2023-05-17T11:43:51.168Z,12.77
2023-05-17T11:46:23.946Z,13.32
2023-05-17T11:48:52.464Z,13.54
2023-05-17T11:51:24.438Z,14.14
2023-05-17T11:53:55.579Z,15.09
2023-05-17T11:56:35.456Z,14.47
2023-05-17T11:59:11.933Z,14.40
2023-05-17T12:01:47.528Z,13.74
2023-05-17T12:04:16.366Z,14.47
2023-05-17T12:06:45.523Z,14.22
2023-05-17T12:09:17.734Z,13.88
2023-05-17T12:11:46.313Z,13.75
2023-05-17T12:14:18.508Z,13.60
2023-05-17T12:16:50.218Z,13.40
2023-05-17T12:19:22.245Z,13.83
2023-05-17T12:21:50.737Z,13.74
2023-05-17T12:24:19.250Z,14.14
2023-05-17T12:26:48.063Z,13.93
2023-05-17T12:29:22.942Z,14.00
2023-05-17T12:31:54.079Z,14.85
2023-05-17T12:34:22.465Z,14.04
2023-05-17T12:36:50.594Z,14.47
2023-05-17T12:39:23.693Z,14.61
2023-05-17T12:41:52.468Z,14.53
2023-05-17T12:44:22.227Z,14.08
2023-05-17T12:46:53.965Z,13.96
2023-05-17T12:49:23.239Z,14.34
2023-05-17T12:51:51.311Z,13.35
2023-05-17T12:54:28.066Z,14.15
2023-05-17T12:56:56.453Z,14.92
2023-05-17T12:59:28.787Z,15.60
2023-05-17T13:01:57.610Z,15.32
2023-05-17T13:04:31.862Z,15.17
2023-05-17T13:07:01.081Z,14.99
2023-05-17T13:09:31.221Z,14.71
2023-05-17T13:12:01.020Z,14.56
2023-05-17T13:14:38.178Z,14.32
2023-05-17T13:17:07.057Z,14.63
2023-05-17T13:19:36.102Z,14.54
2023-05-17T13:22:04.378Z,14.79
2023-05-17T13:24:32.771Z,14.31
2023-05-17T13:27:00.746Z,14.25
2023-05-17T13:29:38.717Z,14.12
2023-05-17T13:32:11.582Z,14.25
2023-05-17T13:34:40.112Z,14.42
2023-05-17T13:37:11.517Z,14.79
2023-05-17T13:39:41.031Z,14.52
2023-05-17T13:42:09.781Z,14.61
2023-05-17T13:44:38.401Z,13.97
2023-05-17T13:47:06.924Z,13.54
2023-05-17T13:49:36.300Z,12.73
2023-05-17T13:52:08.503Z,13.82
2023-05-17T13:54:36.623Z,13.87
2023-05-17T13:57:05.159Z,13.40
2023-05-17T13:59:33.212Z,13.96
2023-05-17T14:02:01.337Z,13.85
2023-05-17T14:04:29.303Z,13.42
2023-05-17T14:06:58.623Z,13.72
2023-05-17T14:09:26.607Z,14.24
2023-05-17T14:11:54.713Z,13.05
2023-05-17T14:14:26.142Z,13.51
2023-05-17T14:16:54.095Z,12.96
2023-05-17T14:19:22.126Z,13.30
2023-05-17T14:21:51.116Z,13.97
2023-05-17T14:24:20.438Z,14.21
2023-05-17T14:26:48.388Z,14.54
2023-05-17T14:29:16.682Z,14.23
2023-05-17T14:31:44.663Z,12.93
2023-05-17T14:34:12.692Z,13.05
2023-05-17T14:36:40.660Z,13.52
2023-05-17T14:39:08.622Z,12.97
2023-05-17T14:41:39.327Z,13.69
2023-05-17T14:44:07.327Z,13.72
2023-05-17T14:46:35.646Z,13.52
2023-05-17T14:49:03.606Z,14.11
2023-05-17T14:51:31.814Z,13.43
2023-05-17T14:53:59.875Z,13.46
2023-05-17T14:56:27.863Z,13.90
2023-05-17T14:58:57.690Z,14.18
2023-05-17T15:01:25.758Z,14.05
2023-05-17T15:03:53.790Z,14.06
2023-05-17T15:06:24.949Z,13.01
2023-05-17T15:08:53.027Z,12.95
2023-05-17T15:11:21.978Z,13.65
2023-05-17T15:13:49.969Z,13.91
2023-05-17T15:16:19.379Z,14.01
2023-05-17T15:18:47.710Z,14.38
2023-05-17T15:21:17.655Z,14.28
2023-05-17T15:23:46.091Z,14.34
2023-05-17T15:26:14.045Z,13.41
2023-05-17T15:28:42.097Z,13.47
2023-05-17T15:31:10.844Z,13.50
2023-05-17T15:33:42.567Z,13.01
2023-05-17T15:36:11.291Z,12.28
2023-05-17T15:38:40.913Z,12.80
2023-05-17T15:41:13.051Z,13.36
2023-05-17T15:43:41.563Z,13.60
2023-05-17T15:46:09.832Z,13.60
2023-05-17T15:48:39.292Z,13.20
2023-05-17T15:51:07.634Z,12.56
2023-05-17T15:53:35.679Z,13.15
2023-05-17T15:56:03.631Z,12.72
2023-05-17T15:58:33.420Z,13.00
2023-05-17T16:01:04.317Z,12.93
2023-05-17T16:03:32.582Z,12.41
2023-05-17T16:06:02.950Z,13.31
2023-05-17T16:08:31.005Z,13.16
2023-05-17T16:11:00.806Z,13.61
2023-05-17T16:13:30.123Z,12.65
2023-05-17T16:15:58.202Z,12.83
2023-05-17T16:18:26.234Z,12.65
2023-05-17T16:20:59.372Z,13.25
2023-05-17T16:23:28.965Z,13.18
2023-05-17T16:25:57.186Z,13.21
2023-05-17T16:28:25.149Z,13.25
2023-05-17T16:30:53.470Z,12.76
2023-05-17T16:33:21.626Z,12.52
2023-05-17T16:35:49.912Z,12.44
2023-05-17T16:38:18.177Z,12.64
2023-05-17T16:40:47.552Z,12.71
2023-05-17T16:43:16.257Z,12.45
2023-05-17T16:45:45.422Z,12.55
2023-05-17T16:48:14.774Z,12.82
2023-05-17T16:50:43.262Z,12.70
2023-05-17T16:53:11.260Z,12.13
2023-05-17T16:55:39.195Z,11.76
2023-05-17T16:58:08.569Z,11.94
2023-05-17T17:00:36.628Z,12.30
2023-05-17T17:03:07.272Z,12.02
2023-05-17T17:05:37.265Z,12.22
2023-05-17T17:08:05.230Z,11.99
2023-05-17T17:10:33.210Z,12.28
2023-05-17T17:13:01.669Z,12.30
2023-05-17T17:15:31.005Z,12.24
2023-05-17T17:17:58.964Z,11.48
2023-05-17T17:20:27.233Z,10.86
2023-05-17T17:22:55.749Z,11.59
2023-05-17T17:25:24.832Z,11.80
2023-05-17T17:27:53.309Z,11.97
2023-05-17T17:30:21.375Z,11.72
2023-05-17T17:32:50.831Z,11.71
2023-05-17T17:35:18.883Z,12.07
2023-05-17T17:37:46.859Z,11.90
2023-05-17T17:40:14.893Z,11.01
2023-05-17T17:42:42.846Z,11.28
2023-05-17T17:45:11.652Z,10.93
2023-05-17T17:47:39.634Z,10.96
2023-05-17T17:50:10.215Z,11.41
2023-05-17T17:52:38.358Z,11.39
2023-05-17T17:55:07.618Z,11.64
2023-05-17T17:57:35.936Z,11.05
2023-05-17T18:00:04.264Z,10.72
2023-05-17T18:02:32.240Z,10.69
2023-05-17T18:05:00.334Z,11.16
2023-05-17T18:07:29.708Z,11.70
2023-05-17T18:09:58.524Z,12.00
2023-05-17T18:12:27.189Z,11.53
2023-05-17T18:14:55.204Z,11.74
2023-05-17T18:17:23.298Z,11.53
2023-05-17T18:19:51.428Z,10.80
2023-05-17T18:22:19.409Z,10.69
2023-05-17T18:24:49.428Z,11.03
2023-05-17T18:27:17.560Z,10.97
2023-05-17T18:29:45.476Z,11.00
2023-05-17T18:32:13.432Z,10.83
2023-05-17T18:34:41.414Z,10.81
2023-05-17T18:37:09.389Z,10.71
2023-05-17T18:39:37.349Z,11.04
2023-05-17T18:42:07.063Z,10.69
2023-05-17T18:44:36.112Z,10.75
2023-05-17T18:47:04.240Z,10.84
2023-05-17T18:49:32.242Z,10.71
2023-05-17T18:52:00.179Z,10.94
2023-05-17T18:54:28.149Z,10.95
2023-05-17T18:56:56.068Z,10.74
2023-05-17T18:59:25.430Z,11.01
2023-05-17T19:01:53.399Z,10.97
2023-05-17T19:04:21.450Z,10.42
2023-05-17T19:06:49.411Z,10.49
2023-05-17T19:09:17.365Z,10.72
2023-05-17T19:11:45.331Z,10.96
2023-05-17T19:14:14.717Z,11.04
2023-05-17T19:16:44.201Z,10.86
2023-05-17T19:19:12.282Z,10.56
2023-05-17T19:21:40.232Z,10.52
2023-05-17T19:24:08.444Z,10.44
2023-05-17T19:26:36.409Z,10.28
2023-05-17T19:29:04.365Z,10.60
2023-05-17T19:31:32.358Z,10.53
2023-05-17T19:34:02.470Z,10.60
2023-05-17T19:36:30.983Z,10.61
2023-05-17T19:38:58.983Z,10.31
2023-05-17T19:41:26.986Z,10.21
2023-05-17T19:43:54.905Z,10.18
2023-05-17T19:46:22.936Z,10.33
2023-05-17T19:48:51.009Z,10.25
2023-05-17T19:51:20.328Z,10.10
2023-05-17T19:53:53.364Z,9.99
2023-05-17T19:56:22.764Z,10.30
2023-05-17T19:58:50.774Z,10.34
2023-05-17T20:01:18.944Z,10.33
2023-05-17T20:03:47.033Z,9.66
2023-05-17T20:06:15.268Z,9.78
2023-05-17T20:08:44.706Z,9.94
2023-05-17T20:11:12.645Z,10.12
2023-05-17T20:13:40.786Z,10.12
2023-05-17T20:16:12.989Z,10.32
2023-05-17T20:18:43.032Z,10.61
2023-05-17T20:21:11.423Z,10.63
2023-05-17T20:23:39.972Z,10.23
2023-05-17T20:26:16.052Z,10.35
2023-05-17T20:28:44.150Z,10.49
2023-05-17T20:31:12.219Z,10.29
2023-05-17T20:33:40.167Z,10.26
2023-05-17T20:36:10.029Z,10.21
2023-05-17T20:38:37.955Z,10.38
2023-05-17T20:41:06.598Z,10.34
2023-05-17T20:43:36.812Z,10.32
2023-05-17T20:46:07.117Z,10.19
2023-05-17T20:48:35.546Z,9.95
2023-05-17T20:51:04.099Z,10.23
2023-05-17T20:53:32.172Z,10.17
2023-05-17T20:56:00.168Z,10.31
2023-05-17T20:58:29.094Z,9.98
2023-05-17T21:00:59.994Z,9.95
2023-05-17T21:03:28.766Z,9.65
2023-05-17T21:05:56.872Z,9.84
2023-05-17T21:08:24.971Z,9.94
2023-05-17T21:10:52.894Z,9.99
2023-05-17T21:13:21.742Z,10.04
2023-05-17T21:15:49.788Z,10.04
2023-05-17T21:18:19.284Z,9.82
2023-05-17T21:20:47.325Z,9.77
2023-05-17T21:23:15.471Z,9.95
2023-05-17T21:25:44.376Z,9.92
2023-05-17T21:28:12.669Z,9.96
2023-05-17T21:30:40.595Z,9.94
2023-05-17T21:33:08.733Z,10.24
2023-05-17T21:35:38.083Z,9.82
2023-05-17T21:38:06.142Z,9.85
2023-05-17T21:40:34.115Z,9.84
2023-05-17T21:43:02.044Z,9.84
2023-05-17T21:45:30.005Z,9.65
2023-05-17T21:47:58.071Z,9.77
2023-05-17T21:50:26.273Z,9.71
2023-05-17T21:52:55.600Z,9.76
2023-05-17T21:55:23.861Z,9.99
2023-05-17T21:57:51.816Z,10.03
2023-05-17T22:00:20.551Z,9.98
2023-05-17T22:02:48.814Z,9.71
2023-05-17T22:05:17.111Z,9.85
2023-05-17T22:07:45.086Z,9.69
2023-05-17T22:10:14.447Z,9.73
2023-05-17T22:12:42.453Z,9.92
2023-05-17T22:15:11.020Z,10.17
2023-05-17T22:17:50.970Z,9.68
2023-05-17T22:20:23.704Z,9.35
2023-05-17T22:22:51.946Z,9.60
2023-05-17T22:25:21.412Z,9.94
2023-05-17T22:27:49.369Z,9.56
2023-05-17T22:30:17.478Z,9.36
2023-05-17T22:32:45.487Z,9.34
2023-05-17T22:35:13.567Z,9.61
2023-05-17T22:37:42.829Z,9.59
2023-05-17T22:40:11.942Z,9.29
2023-05-17T22:42:43.193Z,8.94
2023-05-17T22:45:12.643Z,9.12
2023-05-17T22:47:42.439Z,9.39
2023-05-17T22:50:12.192Z,9.36
2023-05-17T22:52:42.775Z,9.25
2023-05-17T22:55:11.319Z,9.31
2023-05-17T22:57:39.439Z,9.48
2023-05-17T23:00:11.376Z,9.03
2023-05-17T23:02:39.640Z,8.57
2023-05-17T23:05:08.052Z,8.68
2023-05-17T23:07:38.474Z,8.88
2023-05-17T23:10:08.308Z,8.63
2023-05-17T23:12:36.948Z,8.15
2023-05-17T23:15:06.166Z,8.50
2023-05-17T23:17:36.435Z,8.86
2023-05-17T23:20:08.641Z,8.64
2023-05-17T23:22:36.862Z,8.50
2023-05-17T23:25:06.081Z,8.20
2023-05-17T23:27:35.347Z,8.43
2023-05-17T23:30:04.678Z,8.88
2023-05-17T23:32:34.010Z,9.12
2023-05-17T23:35:04.977Z,8.53
2023-05-17T23:37:33.196Z,8.40
2023-05-17T23:40:01.521Z,8.46
2023-05-17T23:42:29.744Z,8.39
2023-05-17T23:44:57.752Z,8.27
2023-05-17T23:47:25.902Z,8.22
2023-05-17T23:49:53.864Z,8.21
2023-05-17T23:52:23.802Z,8.18
2023-05-17T23:54:52.032Z,8.25
2023-05-17T23:57:19.972Z,7.93
2023-05-17T23:59:47.912Z,7.48
